Time;durP1;ratioP1;P1;durP2;ratioP2;P2;SDS_P1;SDS_P2;PMS_P1;PMS_P2;Temp;Humidity;BMP_temperature;BMP_pressure;BME280_temperature;BME280_humidity;BME280_pressure;Samples;Min_cycle;Max_cycle;Signal;HPM_P1;HPM_P2
2022/12/09 00:01:30;;;;;;;0.10;0.10;;;1.60;99.90;;;1.22;100.00;99110.50;4993855;28;20736;-76
2022/12/09 00:03:57;;;;;;;0.20;0.20;;;1.40;99.90;;;1.16;100.00;99105.13;4956100;28;20224;-77
2022/12/09 00:06:28;;;;;;;0.20;0.20;;;1.60;99.90;;;1.03;100.00;99103.06;5009601;28;20264;-79
2022/12/09 00:08:56;;;;;;;0.10;0.10;;;1.40;99.90;;;1.01;100.00;99102.13;4998784;28;20289;-77
2022/12/09 00:11:24;;;;;;;0.10;0.10;;;1.50;99.90;;;1.07;100.00;99108.38;5007153;28;20293;-85
2022/12/09 00:13:57;;;;;;;0.10;0.10;;;1.40;99.90;;;1.16;100.00;99106.00;4991981;28;20235;-79
2022/12/09 00:16:25;;;;;;;0.10;0.10;;;1.30;99.90;;;1.17;100.00;99114.69;4995635;28;20312;-75
2022/12/09 00:18:52;;;;;;;0.10;0.10;;;1.30;99.90;;;1.14;100.00;99110.28;4994609;28;20224;-83
2022/12/09 00:21:25;;;;;;;0.15;0.15;;;1.40;99.90;;;1.10;100.00;99105.84;4998044;28;20314;-75
2022/12/09 00:23:57;;;;;;;0.10;0.10;;;1.30;99.90;;;1.03;100.00;99100.47;5000695;28;20255;-77
2022/12/09 00:26:27;;;;;;;0.10;0.10;;;1.20;99.90;;;1.11;100.00;99109.34;5003445;28;20240;-76
2022/12/09 00:28:55;;;;;;;0.10;0.10;;;1.20;99.90;;;1.18;100.00;99113.84;4998251;28;20220;-74
2022/12/09 00:31:26;;;;;;;0.20;0.20;;;1.50;99.90;;;1.20;100.00;99113.06;5004469;28;20688;-74
2022/12/09 00:33:59;;;;;;;0.20;0.20;;;1.30;99.90;;;1.15;100.00;99105.97;5008529;28;20259;-74
2022/12/09 00:36:28;;;;;;;0.10;0.10;;;1.30;99.90;;;1.06;100.00;99095.31;4995510;28;20326;-74
2022/12/09 00:38:57;;;;;;;0.10;0.10;;;1.20;99.90;;;1.22;100.00;99107.88;4997160;28;20743;-74
2022/12/09 00:41:25;;;;;;;0.10;0.10;;;1.60;99.90;;;1.24;100.00;99108.81;5002924;28;20319;-77
2022/12/09 00:43:53;;;;;;;0.10;0.10;;;1.80;99.90;;;1.15;100.00;99096.44;5001477;28;20272;-76
2022/12/09 00:46:21;;;;;;;0.10;0.10;;;1.50;99.90;;;1.19;100.00;99106.09;4997675;28;20664;-76
2022/12/09 00:48:48;;;;;;;0.20;0.20;;;1.30;99.90;;;1.25;100.00;99102.75;4999926;28;20232;-78
2022/12/09 00:51:20;;;;;;;0.10;0.10;;;1.30;99.90;;;1.23;100.00;99104.44;5008356;28;20224;-76
2022/12/09 00:53:52;;;;;;;0.10;0.10;;;1.40;99.90;;;1.18;100.00;99098.22;5005742;28;20242;-76
2022/12/09 00:56:25;;;;;;;0.10;0.10;;;1.30;99.90;;;1.19;100.00;99095.66;5001550;28;20239;-75
2022/12/09 00:58:52;;;;;;;0.20;0.20;;;1.30;99.90;;;1.15;100.00;99091.22;5005436;28;20255;-75
2022/12/09 01:01:19;;;;;;;0.15;0.15;;;2.00;99.90;;;1.11;100.00;99094.59;5000909;28;20290;-73
2022/12/09 01:03:47;;;;;;;0.10;0.10;;;1.40;99.90;;;1.05;100.00;99083.16;5008169;28;20228;-73
2022/12/09 01:06:19;;;;;;;0.10;0.10;;;1.20;99.90;;;1.03;100.00;99090.91;4993437;28;20236;-75
2022/12/09 01:08:49;;;;;;;0.20;0.20;;;1.20;99.90;;;0.93;100.00;99082.00;4998141;28;20232;-75
2022/12/09 01:11:27;;;;;;;0.20;0.20;;;1.10;99.90;;;0.88;100.00;99077.53;4991507;28;20255;-76
2022/12/09 01:13:59;;;;;;;0.47;0.47;;;1.00;99.90;;;0.93;100.00;99081.13;5005361;28;20236;-76
2022/12/09 01:16:30;;;;;;;0.10;0.10;;;1.60;99.90;;;0.82;100.00;99070.44;5013484;28;20242;-75
2022/12/09 01:19:02;;;;;;;0.38;0.38;;;1.50;99.90;;;0.71;100.00;99060.59;5004929;28;20294;-75
2022/12/09 01:21:30;;;;;;;0.30;0.30;;;1.60;99.90;;;0.59;100.00;99054.22;5006975;28;20236;-75
2022/12/09 01:23:57;;;;;;;0.10;0.10;;;1.70;99.90;;;0.67;100.00;99072.66;5005272;28;20292;-77
2022/12/09 01:26:24;;;;;;;0.75;0.75;;;0.80;99.90;;;0.63;100.00;99065.59;5007138;28;20231;-78
2022/12/09 01:28:53;;;;;;;1.52;1.42;;;1.40;99.90;;;0.53;100.00;99066.19;5006525;28;20315;-75
2022/12/09 01:31:24;;;;;;;0.68;0.68;;;0.70;99.90;;;0.53;100.00;99069.69;5004357;28;20278;-75
2022/12/09 01:33:54;;;;;;;0.20;0.20;;;0.90;99.90;;;0.55;100.00;99067.13;5000619;28;20239;-77
2022/12/09 01:36:24;;;;;;;0.10;0.10;;;0.80;99.90;;;0.52;100.00;99067.91;5002155;28;20581;-75
2022/12/09 01:38:52;;;;;;;0.30;0.30;;;1.20;99.90;;;0.40;100.00;99048.50;5003603;28;20290;-81
2022/12/09 01:41:20;;;;;;;0.10;0.10;;;0.60;99.90;;;0.31;100.00;99049.13;5002731;28;20645;-75
2022/12/09 01:44:27;;;;;;;0.20;0.20;;;0.50;99.90;;;0.25;100.00;99054.16;5006650;28;20302;-75
2022/12/09 01:46:57;;;;;;;0.30;0.30;;;0.30;99.90;;;0.23;100.00;99051.53;4944108;29;20640;-75
2022/12/09 01:49:41;;;;;;;0.22;0.22;;;0.40;99.90;;;0.24;100.00;99055.88;4947383;29;20233;-78
2022/12/09 01:52:21;;;;;;;0.20;0.20;;;0.70;99.90;;;0.24;100.00;99057.59;4972973;28;20248;-76
2022/12/09 01:54:51;;;;;;;0.68;0.68;;;0.40;99.90;;;0.23;100.00;99056.72;4997117;28;20255;-80
2022/12/09 01:57:18;;;;;;;0.20;0.20;;;0.70;99.90;;;0.21;100.00;99068.78;4979236;28;20623;-75
2022/12/09 01:59:45;;;;;;;0.25;0.25;;;0.40;99.90;;;0.24;100.00;99073.19;5006235;28;20297;-76
2022/12/09 02:02:17;;;;;;;0.20;0.20;;;1.10;99.90;;;0.18;100.00;99067.81;4999348;28;20235;-75
2022/12/09 02:04:47;;;;;;;0.10;0.10;;;0.60;99.90;;;0.20;100.00;99074.84;4995571;28;20251;-75
2022/12/09 02:07:17;;;;;;;0.10;0.10;;;1.00;99.90;;;0.28;100.00;99080.25;4999453;28;20228;-75
2022/12/09 02:09:44;;;;;;;0.10;0.10;;;0.80;99.90;;;0.26;100.00;99071.53;4994907;28;20235;-77
2022/12/09 02:12:45;;;;;;;0.20;0.20;;;0.60;99.90;;;0.25;100.00;99069.75;5002420;28;20231;-76
2022/12/09 02:15:39;;;;;;;0.30;0.30;;;0.40;99.90;;;0.19;100.00;99065.28;4963843;28;20235;-79
2022/12/09 02:18:25;;;;;;;0.20;0.20;;;0.40;99.90;;;0.16;100.00;99060.00;5010118;28;20727;-76
2022/12/09 02:21:15;;;;;;;0.22;0.22;;;0.30;99.90;;;0.15;100.00;99060.81;5005370;28;20297;-76
2022/12/09 02:24:00;;;;;;;0.22;0.22;;;0.30;99.90;;;0.19;100.00;99056.59;4995986;28;20580;-77
2022/12/09 02:27:08;;;;;;;0.65;0.65;;;0.30;99.90;;;0.11;100.00;99050.31;5008685;28;20259;-78
2022/12/09 02:30:10;;;;;;;0.10;0.10;;;0.30;99.90;;;0.08;100.00;99047.63;4978399;28;20252;-80
2022/12/09 02:33:02;;;;;;;0.10;0.10;;;0.30;99.90;;;0.15;100.00;99046.94;4994253;28;20242;-77
2022/12/09 02:36:02;;;;;;;0.10;0.10;;;0.30;99.90;;;0.04;100.00;99032.78;5004177;28;20332;-79
2022/12/09 02:38:32;;;;;;;0.20;0.20;;;0.20;99.90;;;0.04;100.00;99030.19;4995360;28;20318;-76
2022/12/09 02:41:12;;;;;;;0.10;0.10;;;0.20;99.90;;;-0.10;100.00;99020.25;5008445;28;20238;-80
2022/12/09 02:43:46;;;;;;;0.47;0.47;;;0.10;99.90;;;-0.14;100.00;99012.31;4995092;28;20223;-76
2022/12/09 02:46:19;;;;;;;0.17;0.17;;;0.10;99.90;;;-0.04;100.00;99020.41;5002918;28;20231;-76
2022/12/09 02:48:53;;;;;;;0.20;0.20;;;0.10;99.90;;;0.03;100.00;99018.91;5002993;28;20227;-75
2022/12/09 02:51:21;;;;;;;0.10;0.10;;;0.20;99.90;;;0.02;100.00;99011.94;5007835;28;20235;-86
2022/12/09 02:53:56;;;;;;;1.85;1.75;;;0.20;99.90;;;-0.04;100.00;99003.94;4986853;28;20806;-76
2022/12/09 02:56:25;;;;;;;0.17;0.17;;;0.10;99.90;;;-0.04;100.00;99001.34;5002878;28;20247;-76
2022/12/09 02:58:53;;;;;;;1.10;1.10;;;0.10;99.90;;;-0.10;100.00;98996.84;5013138;28;20223;-79
2022/12/09 03:01:23;;;;;;;0.10;0.10;;;0.80;99.90;;;-0.13;100.00;98995.88;5007691;28;20238;-80
2022/12/09 03:03:52;;;;;;;0.10;0.10;;;0.60;99.90;;;-0.13;100.00;98993.28;4998614;28;20231;-77
2022/12/09 03:06:26;;;;;;;0.20;0.20;;;0.10;99.90;;;-0.17;100.00;98988.84;5002044;28;20232;-82
2022/12/09 03:09:15;;;;;;;0.10;0.10;;;0.00;99.90;;;-0.17;100.00;98983.66;5012137;28;20684;-75
2022/12/09 03:11:44;;;;;;;0.17;0.17;;;0.00;99.90;;;-0.18;100.00;98985.38;5002129;28;20225;-77
2022/12/09 03:14:30;;;;;;;0.28;0.28;;;0.00;99.90;;;-0.20;100.00;98981.84;4996987;28;20586;-75
2022/12/09 03:17:12;;;;;;;0.10;0.10;;;0.00;99.90;;;-0.22;100.00;98967.06;4988607;28;20242;-78
2022/12/09 03:19:50;;;;;;;0.20;0.20;;;0.40;99.90;;;-0.26;100.00;98960.88;5001744;28;20224;-75
2022/12/09 03:22:22;;;;;;;0.10;0.10;;;0.50;99.90;;;-0.26;100.00;98970.41;5000843;28;20306;-79
2022/12/09 03:25:11;;;;;;;0.10;0.10;;;-0.10;99.90;;;-0.25;100.00;98966.97;4994526;28;20228;-76
2022/12/09 03:27:50;;;;;;;0.10;0.10;;;-0.10;99.90;;;-0.28;100.00;98965.16;4992988;28;20231;-76
2022/12/09 03:30:18;;;;;;;0.10;0.10;;;0.20;99.90;;;-0.36;100.00;98953.69;4983080;28;20315;-76
2022/12/09 03:32:46;;;;;;;0.20;0.20;;;-0.10;99.90;;;-0.35;100.00;98956.31;4979041;28;20239;-76
2022/12/09 03:35:29;;;;;;;0.20;0.20;;;-0.20;99.90;;;-0.38;100.00;98953.63;4995477;28;20301;-78
2022/12/09 03:37:58;;;;;;;0.20;0.20;;;0.80;99.90;;;-0.45;100.00;98946.50;4992670;28;20240;-79
2022/12/09 03:40:29;;;;;;;0.20;0.20;;;-0.30;99.90;;;-0.44;100.00;98945.66;4996721;28;20240;-76
2022/12/09 03:43:22;;;;;;;0.10;0.10;;;-0.30;99.90;;;-0.44;100.00;98949.97;5003389;28;20315;-76
2022/12/09 03:45:53;;;;;;;0.20;0.20;;;-0.30;99.90;;;-0.47;100.00;98952.50;5002379;28;20252;-76
2022/12/09 03:48:22;;;;;;;0.20;0.20;;;0.50;99.90;;;-0.50;100.00;98950.69;5004020;28;20273;-79
2022/12/09 03:50:58;;;;;;;0.10;0.10;;;-0.20;99.90;;;-0.55;100.00;98948.78;5001280;28;20583;-76
2022/12/09 03:53:37;;;;;;;0.10;0.10;;;-0.40;99.90;;;-0.57;100.00;98950.47;5003807;28;20334;-76
2022/12/09 03:56:20;;;;;;;0.10;0.10;;;-0.40;99.90;;;-0.72;100.00;98936.19;5002279;28;20248;-77
2022/12/09 03:58:52;;;;;;;0.50;0.50;;;-0.50;99.90;;;-0.70;100.00;98942.31;4993580;28;20235;-79
2022/12/09 04:01:23;;;;;;;0.20;0.20;;;-0.60;99.90;;;-0.71;100.00;98944.88;5009396;28;20326;-75
2022/12/09 04:03:53;;;;;;;0.40;0.40;;;-0.60;99.90;;;-0.86;100.00;98928.84;4997262;28;20236;-74
2022/12/09 04:06:22;;;;;;;0.20;0.20;;;-0.60;99.90;;;-0.80;100.00;98944.59;5003487;28;20315;-74
2022/12/09 04:08:49;;;;;;;0.20;0.20;;;-0.60;99.90;;;-0.81;100.00;98938.53;5009960;28;20232;-74
2022/12/09 04:11:16;;;;;;;0.10;0.10;;;0.00;99.90;;;-0.96;100.00;98925.09;5005448;28;20311;-74
2022/12/09 04:13:44;;;;;;;0.10;0.10;;;-0.70;99.90;;;-0.90;100.00;98930.47;5004859;28;20290;-74
2022/12/09 04:16:11;;;;;;;0.10;0.10;;;-0.70;99.90;;;-0.79;100.00;98930.78;5000697;28;20667;-73
2022/12/09 04:18:38;;;;;;;0.20;0.20;;;-0.60;99.90;;;-0.76;100.00;98936.94;4997253;28;20220;-73
2022/12/09 04:21:08;;;;;;;0.20;0.20;;;0.20;99.90;;;-0.79;100.00;98939.44;5005620;28;20240;-74
2022/12/09 04:23:35;;;;;;;0.10;0.10;;;-0.60;99.90;;;-0.82;100.00;98936.75;5006508;28;20220;-74
2022/12/09 04:26:15;;;;;;;0.30;0.30;;;-0.60;99.90;;;-0.80;100.00;98945.47;4994444;28;20239;-74
2022/12/09 04:28:42;;;;;;;0.20;0.20;;;-0.60;99.90;;;-0.85;100.00;98938.38;5002721;28;20227;-73
2022/12/09 04:31:12;;;;;;;0.63;0.63;;;-0.50;99.90;;;-0.88;100.00;98935.69;5005391;28;20302;-72
2022/12/09 04:33:40;;;;;;;0.10;0.10;;;-0.60;99.90;;;-0.89;100.00;98942.59;5003582;28;20316;-74
2022/12/09 04:36:13;;;;;;;0.20;0.20;;;-0.70;99.90;;;-0.93;100.00;98932.09;5004137;28;20236;-74
2022/12/09 04:38:41;;;;;;;0.10;0.10;;;-0.70;99.90;;;-0.96;100.00;98930.28;4998749;28;20223;-74
2022/12/09 04:41:09;;;;;;;0.20;0.20;;;-0.70;99.90;;;-0.91;100.00;98938.19;5001054;28;20286;-74
2022/12/09 04:43:36;;;;;;;0.30;0.30;;;-0.70;99.90;;;-0.91;100.00;98944.28;4999351;28;20266;-73
2022/12/09 04:46:12;;;;;;;0.10;0.10;;;-0.70;99.90;;;-0.88;100.00;98935.69;4999135;28;20335;-73
2022/12/09 04:48:41;;;;;;;0.10;0.10;;;-0.70;99.90;;;-0.99;100.00;98923.28;4995231;28;20223;-73
2022/12/09 04:51:11;;;;;;;0.20;0.20;;;-0.80;99.90;;;-0.99;100.00;98922.41;4998138;28;20227;-74
2022/12/09 04:53:40;;;;;;;2.45;1.02;;;-0.80;99.90;;;-0.92;100.00;98932.13;5001703;28;20319;-73
2022/12/09 04:56:13;;;;;;;0.20;0.20;;;-0.70;99.90;;;-0.94;100.00;98928.59;4998324;28;20236;-73
2022/12/09 04:58:43;;;;;;;0.20;0.20;;;-0.70;99.90;;;-0.99;100.00;98919.81;4997804;28;20242;-73
2022/12/09 05:01:17;;;;;;;0.20;0.20;;;-0.70;99.90;;;-0.98;100.00;98922.44;4999951;28;20247;-73
2022/12/09 05:03:52;;;;;;;0.10;0.10;;;-0.80;99.90;;;-0.89;100.00;98927.03;4995994;28;20289;-74
2022/12/09 05:06:21;;;;;;;0.47;0.47;;;-0.70;99.90;;;-0.79;100.00;98926.47;5008934;28;20232;-74
2022/12/09 05:08:48;;;;;;;0.10;0.10;;;-0.20;99.90;;;-0.79;100.00;98933.38;5009024;28;20236;-73
2022/12/09 05:11:18;;;;;;;0.20;0.20;;;-0.10;99.90;;;-0.80;100.00;98922.13;5007818;28;20298;-74
2022/12/09 05:13:46;;;;;;;0.10;0.10;;;-0.60;99.90;;;-0.81;100.00;98927.25;5005137;28;20224;-75
2022/12/09 05:16:17;;;;;;;0.10;0.10;;;-0.60;99.90;;;-0.84;100.00;98917.66;5004606;28;20239;-78
2022/12/09 05:18:45;;;;;;;0.25;0.25;;;-0.60;99.90;;;-0.90;100.00;98916.63;5007715;28;20242;-76
2022/12/09 05:21:17;;;;;;;0.20;0.20;;;-0.70;99.90;;;-0.92;100.00;98915.69;5009569;28;20244;-76
2022/12/09 05:23:44;;;;;;;0.13;0.13;;;-0.70;99.90;;;-0.91;100.00;98912.25;5008702;28;20236;-76
2022/12/09 05:26:17;;;;;;;0.10;0.10;;;-0.70;99.90;;;-1.07;100.00;98903.13;5008831;28;20243;-76
2022/12/09 05:28:45;;;;;;;0.10;0.10;;;-0.80;99.90;;;-1.09;100.00;98905.69;5007029;28;20231;-76
2022/12/09 05:31:18;;;;;;;0.10;0.10;;;-0.80;99.90;;;-1.04;100.00;98909.28;4993660;28;20236;-76
2022/12/09 05:33:47;;;;;;;0.20;0.20;;;-0.80;99.90;;;-1.13;100.00;98901.22;5009182;28;20238;-76
2022/12/09 05:36:18;;;;;;;0.20;0.20;;;-0.80;99.90;;;-1.11;100.00;98906.47;5009150;28;20298;-77
2022/12/09 05:38:45;;;;;;;0.20;0.20;;;-0.90;99.90;;;-1.09;100.00;98902.19;5008264;28;20231;-76
2022/12/09 05:41:12;;;;;;;0.20;0.20;;;-0.90;99.90;;;-1.15;100.00;98899.44;5008470;28;20239;-78
2022/12/09 05:43:40;;;;;;;0.20;0.20;;;-1.00;99.90;;;-1.16;100.00;98898.53;5009537;28;20228;-76
2022/12/09 05:46:07;;;;;;;0.35;0.35;;;-1.00;99.90;;;-1.22;100.00;98897.47;4998050;28;20330;-76
2022/12/09 05:48:36;;;;;;;0.30;0.30;;;-1.00;99.90;;;-1.44;100.00;98880.34;5008281;28;20679;-79
2022/12/09 05:51:10;;;;;;;0.20;0.20;;;-1.10;99.90;;;-1.41;100.00;98886.50;5008279;28;20239;-77
2022/12/09 05:53:37;;;;;;;0.20;0.20;;;-1.20;99.90;;;-1.40;100.00;98888.25;5011286;28;20241;-78
2022/12/09 05:56:05;;;;;;;0.20;0.20;;;-1.20;99.90;;;-1.26;100.00;98900.81;5028055;28;20300;-76
2022/12/09 05:58:33;;;;;;;0.17;0.17;;;-1.10;99.90;;;-1.10;100.00;98916.88;5013838;28;20232;-76
2022/12/09 06:01:08;;;;;;;0.20;0.20;;;-1.00;99.90;;;-1.04;100.00;98927.44;5007281;28;20318;-79
2022/12/09 06:03:36;;;;;;;0.10;0.10;;;-0.90;99.90;;;-1.03;100.00;98918.84;5003611;28;20231;-74
2022/12/09 06:06:11;;;;;;;0.20;0.20;;;-0.80;99.90;;;-0.99;100.00;98925.88;5001279;28;20235;-75
2022/12/09 06:08:40;;;;;;;0.20;0.20;;;-0.80;99.90;;;-0.98;100.00;98925.03;5000042;28;20250;-75
2022/12/09 06:11:15;;;;;;;0.10;0.10;;;-0.70;99.90;;;-0.92;100.00;98923.47;4995336;28;20264;-74
2022/12/09 06:13:43;;;;;;;0.25;0.25;;;-0.80;99.90;;;-1.00;100.00;98920.66;5004699;28;20598;-74
2022/12/09 06:16:11;;;;;;;0.10;0.10;;;-0.80;99.90;;;-1.01;100.00;98926.66;5007616;28;20315;-74
2022/12/09 06:18:39;;;;;;;0.10;0.10;;;-0.80;99.90;;;-1.02;100.00;98933.56;4998260;28;20251;-74
2022/12/09 06:21:11;;;;;;;0.13;0.13;;;-0.80;99.90;;;-1.01;100.00;98937.91;5010060;28;20333;-74
2022/12/09 06:23:40;;;;;;;0.10;0.10;;;-0.70;99.90;;;-1.03;100.00;98933.53;5008758;28;20291;-74
2022/12/09 06:26:19;;;;;;;0.20;0.20;;;-0.80;99.90;;;-1.08;100.00;98933.38;5000678;28;20719;-73
2022/12/09 06:28:47;;;;;;;0.15;0.15;;;-0.80;99.90;;;-1.16;100.00;98928.78;5004489;28;20227;-74
2022/12/09 06:31:14;;;;;;;0.32;0.32;;;-0.90;99.90;;;-1.03;100.00;98939.59;5010520;28;20246;-74
2022/12/09 06:33:41;;;;;;;0.10;0.10;;;-0.80;99.90;;;-1.05;100.00;98935.19;5007661;28;20287;-75
2022/12/09 06:36:21;;;;;;;0.20;0.20;;;-0.80;99.90;;;-1.07;100.00;98932.53;5008209;28;20231;-74
2022/12/09 06:38:48;;;;;;;0.10;0.10;;;-0.80;99.90;;;-1.16;100.00;98928.78;4991680;28;20236;-74
2022/12/09 06:41:16;;;;;;;0.10;0.10;;;-0.20;99.90;;;-1.06;100.00;98933.44;5000539;28;20232;-75
2022/12/09 06:43:43;;;;;;;0.10;0.10;;;-0.20;99.90;;;-1.06;100.00;98933.44;5004598;28;20243;-76
2022/12/09 06:46:22;;;;;;;0.40;0.40;;;-0.80;99.90;;;-1.13;100.00;98929.75;4998665;28;20657;-75
2022/12/09 06:48:52;;;;;;;0.10;0.10;;;-0.90;99.90;;;-1.18;100.00;98928.75;5004762;28;20330;-76
2022/12/09 06:51:23;;;;;;;0.28;0.28;;;-0.90;99.90;;;-1.28;100.00;98926.69;5011173;28;20282;-76
2022/12/09 06:53:53;;;;;;;0.10;0.10;;;-1.00;99.90;;;-1.27;100.00;98928.44;5010714;28;20315;-76
2022/12/09 06:56:22;;;;;;;0.20;0.20;;;-1.00;99.90;;;-1.30;100.00;98920.56;5003601;28;20311;-78
2022/12/09 06:58:51;;;;;;;0.10;0.10;;;-1.00;99.90;;;-1.33;100.00;98928.22;5004000;28;20224;-79
2022/12/09 07:01:24;;;;;;;0.10;0.10;;;-1.10;99.90;;;-1.35;100.00;98925.59;4999273;28;20259;-76
2022/12/09 07:03:55;;;;;;;0.10;0.10;;;-1.10;99.90;;;-1.21;100.00;98926.06;5004749;28;20283;-76
2022/12/09 07:06:38;;;;;;;0.20;0.20;;;-1.00;99.90;;;-1.26;100.00;98925.03;5009047;28;20244;-76
2022/12/09 07:09:13;;;;;;;0.10;0.10;;;-0.40;99.90;;;-1.22;100.00;98926.88;5002206;28;20232;-76
2022/12/09 07:11:45;;;;;;;0.20;0.20;;;-1.00;99.90;;;-1.10;100.00;98928.97;5005926;28;20227;-76
2022/12/09 07:14:16;;;;;;;0.10;0.10;;;-0.70;99.90;;;-1.16;100.00;98933.97;5008190;28;20314;-78
2022/12/09 07:16:45;;;;;;;0.10;0.10;;;-0.90;99.90;;;-1.08;100.00;98933.38;5003272;28;20250;-76
2022/12/09 07:19:19;;;;;;;0.10;0.10;;;-0.90;99.90;;;-1.11;100.00;98927.22;5005245;28;20227;-76
2022/12/09 07:21:49;;;;;;;0.82;0.82;;;-0.80;99.90;;;-1.18;100.00;98926.16;5014798;28;20235;-74
2022/12/09 07:24:18;;;;;;;1.55;0.95;;;-0.90;99.90;;;-1.11;100.00;98930.69;5001940;28;20311;-74
2022/12/09 07:26:46;;;;;;;0.20;0.20;;;-0.80;99.90;;;-1.16;100.00;98916.69;5005412;28;20587;-74
2022/12/09 07:29:13;;;;;;;0.20;0.20;;;-0.10;99.90;;;-1.09;100.00;98925.56;5001935;28;20236;-75
2022/12/09 07:31:41;;;;;;;0.20;0.20;;;-0.50;99.90;;;-1.08;100.00;98922.13;5005115;28;20254;-76
2022/12/09 07:34:09;;;;;;;0.10;0.10;;;-0.70;99.90;;;-1.01;100.00;98924.94;5009457;28;20302;-76
2022/12/09 07:36:37;;;;;;;0.15;0.15;;;-0.70;99.90;;;-1.03;100.00;98917.94;4987763;28;20240;-74
2022/12/09 07:39:14;;;;;;;0.10;0.10;;;-0.80;99.90;;;-1.00;100.00;98928.44;4972917;28;20232;-75
2022/12/09 07:41:41;;;;;;;0.43;0.43;;;-0.80;99.90;;;-0.98;100.00;98924.16;4968629;28;20231;-75
2022/12/09 07:44:12;;;;;;;0.10;0.10;;;-0.70;99.90;;;-0.92;100.00;98932.13;4997549;28;20282;-74
2022/12/09 07:46:39;;;;;;;0.10;0.10;;;-0.70;99.90;;;-0.94;100.00;98927.72;5001712;28;20236;-75
2022/12/09 07:49:06;;;;;;;4.40;1.65;;;-0.70;99.90;;;-0.91;100.00;98927.81;5002026;28;20247;-74
2022/12/09 07:51:34;;;;;;;0.10;0.10;;;-0.70;99.90;;;-0.97;100.00;98924.22;5000918;28;20243;-75
2022/12/09 07:54:02;;;;;;;0.10;0.10;;;-0.70;99.90;;;-0.94;100.00;98919.94;5019352;23;20281;-60
2022/12/09 07:56:29;;;;;;;0.10;0.10;;;-0.70;99.90;;;-0.87;100.00;98925.38;4989649;28;20234;-60
2022/12/09 07:58:57;;;;;;;0.10;0.10;;;-0.70;99.90;;;-0.86;100.00;98929.72;4970667;28;20239;-58
2022/12/09 08:01:28;;;;;;;0.20;0.20;;;-0.70;99.90;;;-0.85;100.00;98935.78;4954948;28;20235;-62
2022/12/09 08:03:56;;;;;;;0.10;0.10;;;-0.60;99.90;;;-0.79;100.00;98931.66;4956210;28;20386;-60
2022/12/09 08:06:27;;;;;;;0.10;0.10;;;-0.60;99.90;;;-0.77;100.00;98937.78;4952870;28;20232;-57
2022/12/09 08:09:04;;;;;;;0.25;0.25;;;-0.60;99.90;;;-0.77;100.00;98934.31;4979340;28;20236;-60
2022/12/09 08:11:33;;;;;;;0.10;0.10;;;-0.50;99.90;;;-0.77;100.00;98945.56;4955362;28;20236;-58
2022/12/09 08:14:04;;;;;;;0.10;0.10;;;-0.50;99.90;;;-0.73;100.00;98944.81;4964715;28;20243;-60
2022/12/09 08:16:38;;;;;;;0.10;0.10;;;-0.50;99.90;;;-0.66;100.00;98948.47;4986826;28;20251;-60
2022/12/09 08:19:06;;;;;;;0.20;0.20;;;-0.50;99.90;;;-0.68;100.00;98945.84;4980106;28;20231;-60
2022/12/09 08:21:35;;;;;;;0.20;0.20;;;-0.50;99.90;;;-0.67;100.00;98954.50;4967371;28;20305;-60
2022/12/09 08:24:12;;;;;;;0.20;0.20;;;-0.50;99.90;;;-0.69;100.00;98940.59;4962553;28;20313;-58
2022/12/09 08:26:44;;;;;;;0.10;0.10;;;-0.50;99.90;;;-0.58;100.00;98947.00;4976337;28;20235;-61
2022/12/09 08:29:12;;;;;;;0.10;0.10;;;-0.40;99.90;;;-0.57;100.00;98955.66;4954980;28;20232;-62
2022/12/09 08:31:41;;;;;;;0.20;0.20;;;-0.40;99.90;;;-0.54;100.00;98948.84;4941994;28;20247;-62
2022/12/09 08:34:10;;;;;;;0.20;0.20;;;-0.40;99.90;;;-0.53;100.00;98944.53;4949633;28;20312;-59
2022/12/09 08:36:38;;;;;;;0.20;0.20;;;-0.30;99.90;;;-0.41;100.00;98953.53;4943218;28;20239;-60
2022/12/09 08:39:05;;;;;;;0.10;0.10;;;-0.20;99.90;;;-0.38;100.00;98955.34;4988994;28;20236;-62
2022/12/09 08:41:35;;;;;;;0.20;0.20;;;-0.20;99.90;;;-0.32;100.00;98956.41;4979502;28;20228;-60
2022/12/09 08:44:11;;;;;;;0.22;0.22;;;-0.10;99.90;;;-0.25;100.00;98960.06;4982418;28;20229;-59
2022/12/09 08:46:42;;;;;;;0.10;0.10;;;-0.10;99.90;;;-0.17;100.00;98960.28;4981834;28;20223;-58
2022/12/09 08:49:11;;;;;;;0.17;0.17;;;0.00;99.90;;;-0.10;100.00;98972.59;4970281;28;20228;-60
2022/12/09 08:51:39;;;;;;;0.22;0.22;;;0.10;99.90;;;-0.05;100.00;98974.47;4979804;28;20574;-60
2022/12/09 08:54:06;;;;;;;0.10;0.10;;;0.10;99.90;;;-0.07;100.00;98964.88;4965581;28;20232;-61
2022/12/09 08:56:33;;;;;;;0.30;0.30;;;0.20;99.90;;;-0.06;100.00;98970.13;4964461;28;20251;-59
2022/12/09 08:59:01;;;;;;;0.10;0.10;;;0.70;99.90;;;-0.06;100.00;98977.03;4982148;28;20246;-61
2022/12/09 09:01:36;;;;;;;0.10;0.10;;;0.40;99.90;;;-0.05;100.00;98978.78;4967239;28;20309;-61
2022/12/09 09:04:11;;;;;;;0.10;0.10;;;0.20;99.90;;;-0.01;100.00;98980.63;4982596;28;20303;-60
2022/12/09 09:06:42;;;;;;;0.10;0.10;;;0.20;99.90;;;-0.02;100.00;98977.16;4967100;28;20223;-61
2022/12/09 09:09:12;;;;;;;0.17;0.17;;;0.20;99.90;;;0.00;100.00;98982.44;4959144;28;20236;-61
2022/12/09 09:11:41;;;;;;;0.10;0.10;;;0.20;99.90;;;0.05;100.00;98991.22;4968778;28;20247;-61
2022/12/09 09:14:11;;;;;;;4.05;1.27;;;0.20;99.90;;;0.12;100.00;98994.88;4967505;28;20241;-60
2022/12/09 09:16:41;;;;;;;0.10;0.10;;;0.40;99.90;;;0.16;100.00;98995.00;4977715;28;20223;-61
2022/12/09 09:19:16;;;;;;;0.65;0.65;;;0.40;99.90;;;0.20;100.00;98993.38;4967374;28;20266;-61
2022/12/09 09:21:43;;;;;;;0.10;0.10;;;0.50;99.90;;;0.26;100.00;98989.22;4977064;28;20676;-61
2022/12/09 09:24:14;;;;;;;0.10;0.10;;;0.40;99.90;;;0.33;100.00;98987.66;4970937;28;20235;-61
2022/12/09 09:26:42;;;;;;;0.10;0.10;;;0.50;99.90;;;0.40;100.00;98996.50;4960436;28;20227;-61
2022/12/09 09:29:13;;;;;;;0.10;0.10;;;0.70;99.90;;;0.42;100.00;98995.69;4992830;28;20623;-61
2022/12/09 09:31:40;;;;;;;0.30;0.30;;;0.70;99.90;;;0.42;100.00;99003.50;4964633;28;20740;-59
2022/12/09 09:34:16;;;;;;;0.60;0.50;;;0.80;99.90;;;0.46;100.00;99004.44;4942567;28;20238;-61
2022/12/09 09:36:49;;;;;;;0.55;0.55;;;-0.20;99.90;;;0.51;100.00;99002.84;4955394;28;20239;-60
2022/12/09 09:39:18;;;;;;;0.10;0.10;;;0.80;99.90;;;0.60;100.00;99008.28;4974594;28;20268;-61
2022/12/09 09:42:02;;;;;;;0.10;0.10;;;0.80;99.90;;;0.62;100.00;98998.81;4975574;28;20312;-61
2022/12/09 09:44:46;;;;;;;0.10;0.10;;;0.80;99.90;;;0.66;100.00;99002.38;4981748;28;20255;-58
2022/12/09 09:47:42;;;;;;;0.10;0.10;;;0.80;99.90;;;0.68;100.00;99009.38;4992427;28;20591;-60
2022/12/09 09:50:59;;;;;;;0.20;0.20;;;0.90;99.90;;;0.75;100.00;99002.59;4984809;28;20235;-60
2022/12/09 09:53:31;;;;;;;1.45;1.08;;;0.90;99.90;;;0.74;100.00;99001.72;4932608;28;20329;-61
2022/12/09 09:55:59;;;;;;;1.15;1.00;;;1.10;99.90;;;0.80;100.00;99003.59;4970118;28;20580;-59
2022/12/09 09:58:50;;;;;;;0.13;0.13;;;1.10;99.90;;;0.74;100.00;98999.13;4962648;28;20231;-61
2022/12/09 10:01:18;;;;;;;0.10;0.10;;;1.00;99.90;;;0.84;100.00;99005.41;4955772;28;20227;-61
2022/12/09 10:04:04;;;;;;;0.10;0.10;;;1.00;99.90;;;0.91;100.00;99012.53;4963777;28;20247;-61
2022/12/09 10:06:50;;;;;;;0.13;0.13;;;1.10;99.90;;;0.96;100.00;99017.00;4992009;28;20306;-61
2022/12/09 10:09:21;;;;;;;0.10;0.10;;;1.20;99.90;;;1.07;100.00;99025.06;4992976;28;20314;-62
2022/12/09 10:11:56;;;;;;;0.20;0.20;;;1.20;99.90;;;1.10;100.00;99029.47;5016629;28;20227;-60
2022/12/09 10:14:36;;;;;;;0.10;0.10;;;0.50;99.90;;;1.11;100.00;99026.91;4978318;28;20235;-60
2022/12/09 10:17:33;;;;;;;0.10;0.10;;;1.20;99.90;;;1.16;100.00;99014.00;4992348;28;20232;-59
2022/12/09 10:20:25;;;;;;;0.10;0.10;;;1.40;99.90;;;1.31;100.00;99019.59;4995885;28;20314;-61
2022/12/09 10:23:10;;;;;;;0.20;0.20;;;1.40;99.90;;;1.35;100.00;99029.25;4992746;28;20236;-60
2022/12/09 10:25:53;;;;;;;0.10;0.10;;;1.50;99.90;;;1.40;100.00;99030.22;5006928;28;20286;-62
2022/12/09 10:28:24;;;;;;;1.67;1.58;;;1.60;99.90;;;1.43;100.00;99032.03;4978088;28;20306;-62
2022/12/09 10:30:54;;;;;;;0.10;0.10;;;1.60;99.90;;;1.54;100.00;99034.03;4999559;28;20253;-60
2022/12/09 10:33:31;;;;;;;0.10;0.10;;;1.70;99.90;;;1.56;100.00;99034.06;4989115;28;20230;-63
2022/12/09 10:35:59;;;;;;;0.10;0.10;;;1.70;99.90;;;1.72;100.00;99036.16;5015972;28;20239;-60
2022/12/09 10:38:29;;;;;;;0.10;0.10;;;2.00;99.90;;;1.84;100.00;99048.56;4982464;28;20229;-59
2022/12/09 10:43:33;;;;;;;0.63;0.63;;;2.10;99.90;;;1.87;100.00;99044.28;4993752;28;20232;-60